sensor_id;sensor_type;location;lat;lon;timestamp;P1;P2;P0
72031;PMS5003;49185;42.320;23.198;2022-09-09T00:00:13;27.00;25.67;17.67
72031;PMS5003;49185;42.320;23.198;2022-09-09T00:02:40;28.75;27.25;16.25
72031;PMS5003;49185;42.320;23.198;2022-09-09T00:07:46;31.00;26.50;18.00
72031;PMS5003;49185;42.320;23.198;2022-09-09T00:13:16;26.25;26.00;17.00
72031;PMS5003;49185;42.320;23.198;2022-09-09T00:21:17;25.00;25.00;15.00
72031;PMS5003;49185;42.320;23.198;2022-09-09T00:29:34;27.00;25.00;17.00
72031;PMS5003;49185;42.320;23.198;2022-09-09T00:32:39;26.00;23.75;17.00
72031;PMS5003;49185;42.320;23.198;2022-09-09T00:35:00;26.50;23.00;14.00
72031;PMS5003;49185;42.320;23.198;2022-09-09T00:37:47;26.00;23.50;14.00
72031;PMS5003;49185;42.320;23.198;2022-09-09T00:40:26;25.00;23.00;14.00
72031;PMS5003;49185;42.320;23.198;2022-09-09T00:48:01;27.25;25.25;15.00
72031;PMS5003;49185;42.320;23.198;2022-09-09T00:50:52;27.00;25.00;15.00
72031;PMS5003;49185;42.320;23.198;2022-09-09T00:58:38;27.00;26.00;16.75
72031;PMS5003;49185;42.320;23.198;2022-09-09T01:01:06;29.50;25.50;16.00
72031;PMS5003;49185;42.320;23.198;2022-09-09T01:03:36;29.25;26.00;16.00
72031;PMS5003;49185;42.320;23.198;2022-09-09T01:14:11;28.75;26.50;15.25
72031;PMS5003;49185;42.320;23.198;2022-09-09T01:16:47;30.00;28.75;15.25
72031;PMS5003;49185;42.320;23.198;2022-09-09T01:19:18;30.25;28.00;17.25
72031;PMS5003;49185;42.320;23.198;2022-09-09T01:21:57;27.00;26.00;17.00
72031;PMS5003;49185;42.320;23.198;2022-09-09T01:27:17;26.00;26.00;16.00
72031;PMS5003;49185;42.320;23.198;2022-09-09T01:29:45;27.75;25.75;16.00
72031;PMS5003;49185;42.320;23.198;2022-09-09T01:35:07;27.50;25.50;17.00
72031;PMS5003;49185;42.320;23.198;2022-09-09T01:37:38;26.50;25.75;16.75
72031;PMS5003;49185;42.320;23.198;2022-09-09T01:40:04;27.00;25.33;15.00
72031;PMS5003;49185;42.320;23.198;2022-09-09T01:42:30;26.25;25.00;14.25
72031;PMS5003;49185;42.320;23.198;2022-09-09T01:44:55;24.00;24.00;15.00
72031;PMS5003;49185;42.320;23.198;2022-09-09T01:47:21;25.67;23.67;14.00
72031;PMS5003;49185;42.320;23.198;2022-09-09T01:49:46;26.33;25.33;13.00
72031;PMS5003;49185;42.320;23.198;2022-09-09T01:52:12;26.67;26.67;13.33
72031;PMS5003;49185;42.320;23.198;2022-09-09T01:54:37;28.00;27.00;15.00
72031;PMS5003;49185;42.320;23.198;2022-09-09T01:57:21;30.75;28.25;15.00
72031;PMS5003;49185;42.320;23.198;2022-09-09T02:02:29;25.50;25.50;15.00
72031;PMS5003;49185;42.320;23.198;2022-09-09T02:05:22;25.50;25.00;15.00
72031;PMS5003;49185;42.320;23.198;2022-09-09T02:07:52;25.50;23.25;13.75
72031;PMS5003;49185;42.320;23.198;2022-09-09T02:13:01;25.50;23.50;13.00
72031;PMS5003;49185;42.320;23.198;2022-09-09T02:15:37;21.75;21.75;13.00
72031;PMS5003;49185;42.320;23.198;2022-09-09T02:18:19;24.00;23.00;13.50
72031;PMS5003;49185;42.320;23.198;2022-09-09T02:20:59;24.50;23.50;14.50
72031;PMS5003;49185;42.320;23.198;2022-09-09T02:23:27;28.25;26.50;15.00
72031;PMS5003;49185;42.320;23.198;2022-09-09T02:25:53;30.00;28.00;15.00
72031;PMS5003;49185;42.320;23.198;2022-09-09T02:28:22;27.50;26.00;15.00
72031;PMS5003;49185;42.320;23.198;2022-09-09T02:30:52;27.00;27.00;15.00
72031;PMS5003;49185;42.320;23.198;2022-09-09T02:33:17;27.33;27.33;15.00
72031;PMS5003;49185;42.320;23.198;2022-09-09T02:35:43;27.50;25.50;15.00
72031;PMS5003;49185;42.320;23.198;2022-09-09T02:38:11;31.25;27.75;15.00
72031;PMS5003;49185;42.320;23.198;2022-09-09T02:40:40;29.50;28.50;15.00
72031;PMS5003;49185;42.320;23.198;2022-09-09T02:43:06;28.33;26.00;15.67
72031;PMS5003;49185;42.320;23.198;2022-09-09T02:45:34;28.50;26.00;13.00
72031;PMS5003;49185;42.320;23.198;2022-09-09T02:48:14;29.00;27.00;15.00
72031;PMS5003;49185;42.320;23.198;2022-09-09T02:51:02;29.00;27.00;16.00
72031;PMS5003;49185;42.320;23.198;2022-09-09T02:56:16;27.25;25.50;14.00
72031;PMS5003;49185;42.320;23.198;2022-09-09T02:58:46;27.25;25.00;14.00
72031;PMS5003;49185;42.320;23.198;2022-09-09T03:01:11;28.00;26.33;15.00
72031;PMS5003;49185;42.320;23.198;2022-09-09T03:03:37;27.00;26.00;15.00
72031;PMS5003;49185;42.320;23.198;2022-09-09T03:06:03;29.25;26.75;14.50
72031;PMS5003;49185;42.320;23.198;2022-09-09T03:08:28;26.00;25.00;14.00
72031;PMS5003;49185;42.320;23.198;2022-09-09T03:10:54;27.67;26.67;14.00
72031;PMS5003;49185;42.320;23.198;2022-09-09T03:13:20;28.00;27.00;13.50
72031;PMS5003;49185;42.320;23.198;2022-09-09T03:15:47;28.00;28.00;14.00
72031;PMS5003;49185;42.320;23.198;2022-09-09T03:18:13;27.00;26.25;15.00
72031;PMS5003;49185;42.320;23.198;2022-09-09T03:20:38;29.00;28.00;15.00
72031;PMS5003;49185;42.320;23.198;2022-09-09T03:23:04;27.33;26.00;15.00
72031;PMS5003;49185;42.320;23.198;2022-09-09T03:25:29;26.00;25.33;15.67
72031;PMS5003;49185;42.320;23.198;2022-09-09T03:27:54;28.00;26.67;15.67
72031;PMS5003;49185;42.320;23.198;2022-09-09T03:30:21;27.25;27.00;16.00
72031;PMS5003;49185;42.320;23.198;2022-09-09T03:32:47;27.00;25.00;13.00
72031;PMS5003;49185;42.320;23.198;2022-09-09T03:35:13;25.00;23.00;13.33
72031;PMS5003;49185;42.320;23.198;2022-09-09T03:37:39;25.00;24.50;13.00
72031;PMS5003;49185;42.320;23.198;2022-09-09T03:40:04;26.67;25.00;13.00
72031;PMS5003;49185;42.320;23.198;2022-09-09T03:42:30;25.25;24.25;14.00
72031;PMS5003;49185;42.320;23.198;2022-09-09T03:44:55;26.33;25.33;14.00
72031;PMS5003;49185;42.320;23.198;2022-09-09T03:47:21;26.33;25.33;13.00
72031;PMS5003;49185;42.320;23.198;2022-09-09T03:49:47;27.00;25.00;13.00
72031;PMS5003;49185;42.320;23.198;2022-09-09T03:52:13;26.50;26.50;15.00
72031;PMS5003;49185;42.320;23.198;2022-09-09T03:54:39;27.50;26.50;17.75
72031;PMS5003;49185;42.320;23.198;2022-09-09T03:57:04;27.33;26.00;18.00
72031;PMS5003;49185;42.320;23.198;2022-09-09T03:59:30;25.33;25.00;17.00
72031;PMS5003;49185;42.320;23.198;2022-09-09T04:01:55;25.67;25.00;16.00
72031;PMS5003;49185;42.320;23.198;2022-09-09T04:04:21;27.00;27.00;16.67
72031;PMS5003;49185;42.320;23.198;2022-09-09T04:06:46;26.33;25.67;14.00
72031;PMS5003;49185;42.320;23.198;2022-09-09T04:09:12;26.67;26.00;12.00
72031;PMS5003;49185;42.320;23.198;2022-09-09T04:11:37;27.33;25.33;12.00
72031;PMS5003;49185;42.320;23.198;2022-09-09T04:14:03;25.33;25.33;12.33
72031;PMS5003;49185;42.320;23.198;2022-09-09T04:16:28;28.33;25.67;13.00
72031;PMS5003;49185;42.320;23.198;2022-09-09T04:18:53;27.00;25.33;14.00
72031;PMS5003;49185;42.320;23.198;2022-09-09T04:21:19;26.33;24.00;15.00
72031;PMS5003;49185;42.320;23.198;2022-09-09T04:23:44;27.33;25.00;14.00
72031;PMS5003;49185;42.320;23.198;2022-09-09T04:26:10;26.00;25.00;13.67
72031;PMS5003;49185;42.320;23.198;2022-09-09T04:28:36;27.00;26.33;14.00
72031;PMS5003;49185;42.320;23.198;2022-09-09T04:31:06;28.00;27.50;15.00
72031;PMS5003;49185;42.320;23.198;2022-09-09T04:33:40;27.75;27.00;16.00
72031;PMS5003;49185;42.320;23.198;2022-09-09T04:36:06;26.00;25.33;17.00
72031;PMS5003;49185;42.320;23.198;2022-09-09T04:38:32;27.25;26.25;16.25
72031;PMS5003;49185;42.320;23.198;2022-09-09T04:40:58;28.00;26.67;16.00
72031;PMS5003;49185;42.320;23.198;2022-09-09T04:43:23;28.00;26.00;17.00
72031;PMS5003;49185;42.320;23.198;2022-09-09T04:45:49;29.00;27.00;17.00
72031;PMS5003;49185;42.320;23.198;2022-09-09T04:48:15;28.00;26.00;16.00
72031;PMS5003;49185;42.320;23.198;2022-09-09T04:50:41;29.00;25.00;16.00
72031;PMS5003;49185;42.320;23.198;2022-09-09T04:53:06;29.00;24.00;16.00
72031;PMS5003;49185;42.320;23.198;2022-09-09T04:55:32;29.00;28.00;18.00
72031;PMS5003;49185;42.320;23.198;2022-09-09T04:58:03;29.50;27.00;18.00
72031;PMS5003;49185;42.320;23.198;2022-09-09T05:00:29;30.00;29.00;17.50
72031;PMS5003;49185;42.320;23.198;2022-09-09T05:02:54;27.00;25.00;17.00
72031;PMS5003;49185;42.320;23.198;2022-09-09T05:05:20;30.00;27.67;17.33
72031;PMS5003;49185;42.320;23.198;2022-09-09T05:07:45;31.00;26.00;17.67
72031;PMS5003;49185;42.320;23.198;2022-09-09T05:10:10;31.33;28.00;17.67
72031;PMS5003;49185;42.320;23.198;2022-09-09T05:12:36;29.00;27.00;16.00
72031;PMS5003;49185;42.320;23.198;2022-09-09T05:15:01;30.00;27.67;18.67
72031;PMS5003;49185;42.320;23.198;2022-09-09T05:17:27;31.00;29.00;18.00
72031;PMS5003;49185;42.320;23.198;2022-09-09T05:19:52;33.00;28.67;18.00
72031;PMS5003;49185;42.320;23.198;2022-09-09T05:22:19;31.00;29.00;17.00
72031;PMS5003;49185;42.320;23.198;2022-09-09T05:24:45;28.00;27.25;16.00
72031;PMS5003;49185;42.320;23.198;2022-09-09T05:27:10;26.00;25.67;17.00
72031;PMS5003;49185;42.320;23.198;2022-09-09T05:29:35;25.00;25.00;16.00
72031;PMS5003;49185;42.320;23.198;2022-09-09T05:32:01;24.00;23.00;15.67
72031;PMS5003;49185;42.320;23.198;2022-09-09T05:34:26;23.00;22.00;15.00
72031;PMS5003;49185;42.320;23.198;2022-09-09T05:36:52;22.00;22.00;14.00
72031;PMS5003;49185;42.320;23.198;2022-09-09T05:39:17;23.33;23.00;14.00
72031;PMS5003;49185;42.320;23.198;2022-09-09T05:41:43;22.00;21.00;12.67
72031;PMS5003;49185;42.320;23.198;2022-09-09T05:44:09;23.00;22.00;14.00
72031;PMS5003;49185;42.320;23.198;2022-09-09T05:46:34;22.00;20.00;14.33
72031;PMS5003;49185;42.320;23.198;2022-09-09T05:49:00;21.33;19.67;14.67
72031;PMS5003;49185;42.320;23.198;2022-09-09T05:51:27;23.00;20.00;14.50
72031;PMS5003;49185;42.320;23.198;2022-09-09T05:53:54;22.00;21.00;14.00
72031;PMS5003;49185;42.320;23.198;2022-09-09T05:56:20;21.00;20.00;15.00
72031;PMS5003;49185;42.320;23.198;2022-09-09T05:58:49;21.00;18.00;11.00
72031;PMS5003;49185;42.320;23.198;2022-09-09T06:01:19;22.00;20.00;11.00
72031;PMS5003;49185;42.320;23.198;2022-09-09T06:03:47;23.00;22.00;11.00
72031;PMS5003;49185;42.320;23.198;2022-09-09T06:06:15;23.50;22.00;12.50
72031;PMS5003;49185;42.320;23.198;2022-09-09T06:08:42;24.00;24.00;14.00
72031;PMS5003;49185;42.320;23.198;2022-09-09T06:11:10;25.50;25.00;14.00
72031;PMS5003;49185;42.320;23.198;2022-09-09T06:13:38;26.00;25.00;14.00
72031;PMS5003;49185;42.320;23.198;2022-09-09T06:16:03;24.50;22.50;13.00
72031;PMS5003;49185;42.320;23.198;2022-09-09T06:18:30;24.00;24.00;14.00
72031;PMS5003;49185;42.320;23.198;2022-09-09T06:21:00;23.00;23.00;14.00
72031;PMS5003;49185;42.320;23.198;2022-09-09T06:23:27;23.00;22.00;15.00
72031;PMS5003;49185;42.320;23.198;2022-09-09T06:26:12;22.00;22.00;14.50
72031;PMS5003;49185;42.320;23.198;2022-09-09T06:28:39;21.00;21.00;13.00
72031;PMS5003;49185;42.320;23.198;2022-09-09T06:31:06;21.00;21.00;12.33
72031;PMS5003;49185;42.320;23.198;2022-09-09T06:33:34;22.00;21.50;13.00
72031;PMS5003;49185;42.320;23.198;2022-09-09T06:36:01;21.50;21.50;13.00
72031;PMS5003;49185;42.320;23.198;2022-09-09T06:38:27;20.75;20.75;13.50
72031;PMS5003;49185;42.320;23.198;2022-09-09T06:40:53;19.00;19.00;15.00
72031;PMS5003;49185;42.320;23.198;2022-09-09T06:43:20;22.25;22.25;15.00
72031;PMS5003;49185;42.320;23.198;2022-09-09T06:48:20;21.00;19.00;11.00
72031;PMS5003;49185;42.320;23.198;2022-09-09T06:50:45;22.33;20.33;11.00
72031;PMS5003;49185;42.320;23.198;2022-09-09T06:53:11;20.00;20.00;12.00
72031;PMS5003;49185;42.320;23.198;2022-09-09T06:55:36;20.00;19.00;12.00
72031;PMS5003;49185;42.320;23.198;2022-09-09T06:58:02;21.33;18.67;12.00
72031;PMS5003;49185;42.320;23.198;2022-09-09T07:00:32;21.00;19.00;10.00
72031;PMS5003;49185;42.320;23.198;2022-09-09T07:02:58;21.00;20.00;11.00
72031;PMS5003;49185;42.320;23.198;2022-09-09T07:05:23;21.00;19.67;11.00
72031;PMS5003;49185;42.320;23.198;2022-09-09T07:07:49;19.00;18.00;9.00
72031;PMS5003;49185;42.320;23.198;2022-09-09T07:10:15;20.25;20.00;10.75
72031;PMS5003;49185;42.320;23.198;2022-09-09T07:12:41;22.00;20.00;13.00
72031;PMS5003;49185;42.320;23.198;2022-09-09T07:15:06;21.00;21.00;13.00
72031;PMS5003;49185;42.320;23.198;2022-09-09T07:17:32;20.67;20.67;14.00
72031;PMS5003;49185;42.320;23.198;2022-09-09T07:19:57;24.00;23.67;15.00
72031;PMS5003;49185;42.320;23.198;2022-09-09T07:22:23;22.33;20.33;14.00
72031;PMS5003;49185;42.320;23.198;2022-09-09T07:24:48;24.00;23.00;14.00
72031;PMS5003;49185;42.320;23.198;2022-09-09T07:27:13;24.00;23.00;13.00
72031;PMS5003;49185;42.320;23.198;2022-09-09T07:29:39;21.00;21.00;11.00
72031;PMS5003;49185;42.320;23.198;2022-09-09T07:32:04;23.00;21.00;13.00
72031;PMS5003;49185;42.320;23.198;2022-09-09T07:34:30;20.00;18.00;11.67
72031;PMS5003;49185;42.320;23.198;2022-09-09T07:36:55;19.33;19.00;12.00
72031;PMS5003;49185;42.320;23.198;2022-09-09T07:39:20;20.33;20.00;11.00
72031;PMS5003;49185;42.320;23.198;2022-09-09T07:41:46;21.00;21.00;13.00
72031;PMS5003;49185;42.320;23.198;2022-09-09T07:44:16;23.00;21.25;12.00
72031;PMS5003;49185;42.320;23.198;2022-09-09T07:46:44;21.50;20.00;12.50
72031;PMS5003;49185;42.320;23.198;2022-09-09T07:49:10;24.00;24.00;12.50
72031;PMS5003;49185;42.320;23.198;2022-09-09T07:51:40;23.00;21.67;12.00
72031;PMS5003;49185;42.320;23.198;2022-09-09T07:54:09;22.50;21.25;12.00
72031;PMS5003;49185;42.320;23.198;2022-09-09T07:56:36;21.00;21.00;13.00
72031;PMS5003;49185;42.320;23.198;2022-09-09T07:59:03;21.00;21.00;13.00
72031;PMS5003;49185;42.320;23.198;2022-09-09T08:01:30;19.00;19.00;12.00
72031;PMS5003;49185;42.320;23.198;2022-09-09T08:04:07;21.75;19.50;10.00
72031;PMS5003;49185;42.320;23.198;2022-09-09T08:06:38;24.00;22.00;12.25
72031;PMS5003;49185;42.320;23.198;2022-09-09T08:09:06;25.00;22.50;14.00
72031;PMS5003;49185;42.320;23.198;2022-09-09T08:11:32;24.00;24.00;13.00
72031;PMS5003;49185;42.320;23.198;2022-09-09T08:13:58;22.00;20.00;12.00
72031;PMS5003;49185;42.320;23.198;2022-09-09T08:16:25;21.00;19.00;12.33
72031;PMS5003;49185;42.320;23.198;2022-09-09T08:18:52;22.00;20.75;13.00
72031;PMS5003;49185;42.320;23.198;2022-09-09T08:21:19;23.00;22.00;12.00
72031;PMS5003;49185;42.320;23.198;2022-09-09T08:23:47;21.00;21.00;12.50
72031;PMS5003;49185;42.320;23.198;2022-09-09T08:26:13;21.00;20.00;13.50
72031;PMS5003;49185;42.320;23.198;2022-09-09T08:28:41;19.50;19.50;14.00
72031;PMS5003;49185;42.320;23.198;2022-09-09T08:31:15;24.75;23.25;14.00
72031;PMS5003;49185;42.320;23.198;2022-09-09T08:33:42;23.50;23.50;11.25
72031;PMS5003;49185;42.320;23.198;2022-09-09T08:36:10;20.50;20.50;12.25
72031;PMS5003;49185;42.320;23.198;2022-09-09T08:38:36;20.50;20.00;13.00
72031;PMS5003;49185;42.320;23.198;2022-09-09T08:46:44;21.00;21.00;11.00
72031;PMS5003;49185;42.320;23.198;2022-09-09T08:51:44;20.00;19.00;13.25
72031;PMS5003;49185;42.320;23.198;2022-09-09T08:54:10;21.00;19.00;12.00
72031;PMS5003;49185;42.320;23.198;2022-09-09T08:56:35;22.67;22.33;13.00
72031;PMS5003;49185;42.320;23.198;2022-09-09T08:59:01;22.00;20.00;14.00
72031;PMS5003;49185;42.320;23.198;2022-09-09T09:04:37;21.50;20.50;13.00
72031;PMS5003;49185;42.320;23.198;2022-09-09T09:07:45;19.25;19.00;10.75
72031;PMS5003;49185;42.320;23.198;2022-09-09T09:10:05;20.75;20.00;10.00
72031;PMS5003;49185;42.320;23.198;2022-09-09T09:12:37;19.00;19.00;11.00
72031;PMS5003;49185;42.320;23.198;2022-09-09T09:18:05;21.00;20.00;13.00
72031;PMS5003;49185;42.320;23.198;2022-09-09T09:20:35;20.00;19.00;11.00
72031;PMS5003;49185;42.320;23.198;2022-09-09T09:23:17;18.50;17.50;9.50
72031;PMS5003;49185;42.320;23.198;2022-09-09T09:25:47;20.75;19.50;9.00
72031;PMS5003;49185;42.320;23.198;2022-09-09T09:30:42;20.00;20.00;10.75
72031;PMS5003;49185;42.320;23.198;2022-09-09T09:33:24;22.25;21.50;11.50
72031;PMS5003;49185;42.320;23.198;2022-09-09T09:35:57;22.00;21.75;13.00
72031;PMS5003;49185;42.320;23.198;2022-09-09T09:38:24;21.00;19.33;11.00
72031;PMS5003;49185;42.320;23.198;2022-09-09T09:40:54;20.00;19.75;11.00
72031;PMS5003;49185;42.320;23.198;2022-09-09T09:43:24;20.50;20.50;11.75
72031;PMS5003;49185;42.320;23.198;2022-09-09T09:45:52;21.00;21.00;12.00
72031;PMS5003;49185;42.320;23.198;2022-09-09T09:48:17;20.67;20.00;12.00
72031;PMS5003;49185;42.320;23.198;2022-09-09T09:50:46;23.00;22.33;12.00
72031;PMS5003;49185;42.320;23.198;2022-09-09T09:53:25;21.75;20.75;10.75
72031;PMS5003;49185;42.320;23.198;2022-09-09T09:56:02;22.00;21.00;13.00
72031;PMS5003;49185;42.320;23.198;2022-09-09T09:58:31;19.00;19.00;10.25
72031;PMS5003;49185;42.320;23.198;2022-09-09T10:01:27;22.00;20.25;11.00
72031;PMS5003;49185;42.320;23.198;2022-09-09T10:03:59;20.00;20.00;9.75
72031;PMS5003;49185;42.320;23.198;2022-09-09T10:06:33;21.25;20.25;10.00
72031;PMS5003;49185;42.320;23.198;2022-09-09T10:09:00;20.50;20.00;11.00
72031;PMS5003;49185;42.320;23.198;2022-09-09T10:11:30;20.50;18.00;10.00
72031;PMS5003;49185;42.320;23.198;2022-09-09T10:14:46;22.75;19.50;10.00
72031;PMS5003;49185;42.320;23.198;2022-09-09T10:38:52;21.50;19.25;10.00
72031;PMS5003;49185;42.320;23.198;2022-09-09T10:44:44;21.00;20.00;12.00
72031;PMS5003;49185;42.320;23.198;2022-09-09T10:55:43;19.00;18.75;13.50
72031;PMS5003;49185;42.320;23.198;2022-09-09T10:58:14;21.00;20.25;14.00
72031;PMS5003;49185;42.320;23.198;2022-09-09T11:00:49;24.00;23.00;14.00
72031;PMS5003;49185;42.320;23.198;2022-09-09T11:03:20;21.50;21.50;12.00
72031;PMS5003;49185;42.320;23.198;2022-09-09T11:05:50;21.00;20.00;11.00
72031;PMS5003;49185;42.320;23.198;2022-09-09T11:08:23;20.50;19.50;13.50
72031;PMS5003;49185;42.320;23.198;2022-09-09T11:22:01;23.00;21.50;14.00
72031;PMS5003;49185;42.320;23.198;2022-09-09T11:27:09;22.00;20.50;13.00
72031;PMS5003;49185;42.320;23.198;2022-09-09T11:35:24;21.50;21.00;14.00
72031;PMS5003;49185;42.320;23.198;2022-09-09T11:40:39;24.00;21.00;14.25
72031;PMS5003;49185;42.320;23.198;2022-09-09T11:43:07;24.50;22.00;15.00
72031;PMS5003;49185;42.320;23.198;2022-09-09T11:45:55;23.50;22.00;15.00
72031;PMS5003;49185;42.320;23.198;2022-09-09T11:51:26;23.00;22.25;13.25
72031;PMS5003;49185;42.320;23.198;2022-09-09T11:53:50;23.00;23.00;12.00
72031;PMS5003;49185;42.320;23.198;2022-09-09T11:56:25;24.50;24.50;13.25
72031;PMS5003;49185;42.320;23.198;2022-09-09T12:01:30;26.25;25.00;15.75
72031;PMS5003;49185;42.320;23.198;2022-09-09T12:06:54;23.00;22.75;16.50
72031;PMS5003;49185;42.320;23.198;2022-09-09T12:14:42;21.00;21.00;13.00
72031;PMS5003;49185;42.320;23.198;2022-09-09T12:17:20;22.75;21.00;13.75
72031;PMS5003;49185;42.320;23.198;2022-09-09T12:19:48;22.00;21.00;14.00
72031;PMS5003;49185;42.320;23.198;2022-09-09T12:22:39;42.25;36.25;21.75
72031;PMS5003;49185;42.320;23.198;2022-09-09T12:28:02;57.50;46.00;28.50
72031;PMS5003;49185;42.320;23.198;2022-09-09T12:30:36;40.00;33.50;22.00
72031;PMS5003;49185;42.320;23.198;2022-09-09T12:33:12;27.50;26.00;18.00
72031;PMS5003;49185;42.320;23.198;2022-09-09T12:35:41;41.50;34.25;20.25
72031;PMS5003;49185;42.320;23.198;2022-09-09T12:38:13;68.50;54.00;30.25
72031;PMS5003;49185;42.320;23.198;2022-09-09T12:40:53;63.00;48.75;29.00
72031;PMS5003;49185;42.320;23.198;2022-09-09T12:43:21;51.75;42.00;26.50
72031;PMS5003;49185;42.320;23.198;2022-09-09T12:45:49;42.50;34.75;23.00
72031;PMS5003;49185;42.320;23.198;2022-09-09T12:48:18;33.00;31.00;20.00
72031;PMS5003;49185;42.320;23.198;2022-09-09T12:50:46;24.25;24.00;18.00
72031;PMS5003;49185;42.320;23.198;2022-09-09T12:55:48;26.00;23.00;16.00
72031;PMS5003;49185;42.320;23.198;2022-09-09T12:58:24;25.00;23.00;16.00
72031;PMS5003;49185;42.320;23.198;2022-09-09T13:00:52;27.00;26.00;15.00
72031;PMS5003;49185;42.320;23.198;2022-09-09T13:03:19;28.00;24.25;14.25
72031;PMS5003;49185;42.320;23.198;2022-09-09T13:05:45;24.00;23.00;14.00
72031;PMS5003;49185;42.320;23.198;2022-09-09T13:08:12;22.50;22.50;13.00
72031;PMS5003;49185;42.320;23.198;2022-09-09T13:10:44;22.00;22.00;12.00
72031;PMS5003;49185;42.320;23.198;2022-09-09T13:13:38;22.25;22.25;10.00
72031;PMS5003;49185;42.320;23.198;2022-09-09T13:16:06;22.50;21.50;12.00
72031;PMS5003;49185;42.320;23.198;2022-09-09T13:18:47;24.00;22.50;14.50
72031;PMS5003;49185;42.320;23.198;2022-09-09T13:21:13;22.50;21.50;13.00
72031;PMS5003;49185;42.320;23.198;2022-09-09T13:23:39;21.00;20.00;11.00
72031;PMS5003;49185;42.320;23.198;2022-09-09T13:26:06;20.00;19.00;11.00
72031;PMS5003;49185;42.320;23.198;2022-09-09T13:28:45;22.25;21.50;12.25
72031;PMS5003;49185;42.320;23.198;2022-09-09T13:31:24;24.33;24.00;13.00
72031;PMS5003;49185;42.320;23.198;2022-09-09T13:33:53;24.50;24.00;13.00
72031;PMS5003;49185;42.320;23.198;2022-09-09T13:36:27;23.00;23.00;14.00
72031;PMS5003;49185;42.320;23.198;2022-09-09T13:38:55;23.25;21.25;12.50
72031;PMS5003;49185;42.320;23.198;2022-09-09T13:41:22;21.75;20.50;12.50
72031;PMS5003;49185;42.320;23.198;2022-09-09T13:43:59;24.00;22.00;13.50
72031;PMS5003;49185;42.320;23.198;2022-09-09T13:46:34;28.25;26.00;18.00
72031;PMS5003;49185;42.320;23.198;2022-09-09T13:51:41;27.00;26.00;18.00
72031;PMS5003;49185;42.320;23.198;2022-09-09T13:54:12;25.00;23.00;18.00
72031;PMS5003;49185;42.320;23.198;2022-09-09T13:56:39;25.00;22.25;16.00
72031;PMS5003;49185;42.320;23.198;2022-09-09T13:59:08;25.00;22.50;16.00
72031;PMS5003;49185;42.320;23.198;2022-09-09T14:01:38;27.00;25.50;15.00
72031;PMS5003;49185;42.320;23.198;2022-09-09T14:04:04;25.00;25.00;16.00
72031;PMS5003;49185;42.320;23.198;2022-09-09T14:06:30;25.50;25.50;16.00
72031;PMS5003;49185;42.320;23.198;2022-09-09T14:08:55;29.00;27.67;16.00
72031;PMS5003;49185;42.320;23.198;2022-09-09T14:11:21;28.00;26.00;16.00
72031;PMS5003;49185;42.320;23.198;2022-09-09T14:13:47;30.33;28.67;18.33
72031;PMS5003;49185;42.320;23.198;2022-09-09T14:16:13;46.25;37.50;24.25
72031;PMS5003;49185;42.320;23.198;2022-09-09T14:18:39;50.33;42.00;25.33
72031;PMS5003;49185;42.320;23.198;2022-09-09T14:21:04;54.00;44.00;27.33
72031;PMS5003;49185;42.320;23.198;2022-09-09T14:23:30;44.33;37.33;24.33
72031;PMS5003;49185;42.320;23.198;2022-09-09T14:25:55;37.00;32.00;21.00
72031;PMS5003;49185;42.320;23.198;2022-09-09T14:28:21;35.33;32.00;20.00
72031;PMS5003;49185;42.320;23.198;2022-09-09T14:30:46;31.33;29.33;21.00
72031;PMS5003;49185;42.320;23.198;2022-09-09T14:33:13;27.00;27.00;18.00
72031;PMS5003;49185;42.320;23.198;2022-09-09T14:35:40;26.00;25.00;17.00
72031;PMS5003;49185;42.320;23.198;2022-09-09T14:38:05;24.00;24.00;14.67
72031;PMS5003;49185;42.320;23.198;2022-09-09T14:40:31;24.00;22.00;15.00
72031;PMS5003;49185;42.320;23.198;2022-09-09T14:42:56;23.00;22.33;14.00
72031;PMS5003;49185;42.320;23.198;2022-09-09T14:45:22;23.00;23.00;14.67
72031;PMS5003;49185;42.320;23.198;2022-09-09T14:47:49;23.00;22.00;15.00
72031;PMS5003;49185;42.320;23.198;2022-09-09T14:50:15;24.00;24.00;15.75
72031;PMS5003;49185;42.320;23.198;2022-09-09T14:52:40;22.33;22.00;16.00
72031;PMS5003;49185;42.320;23.198;2022-09-09T14:55:06;24.00;23.00;15.00
72031;PMS5003;49185;42.320;23.198;2022-09-09T14:57:31;25.00;22.50;16.00
72031;PMS5003;49185;42.320;23.198;2022-09-09T14:59:57;24.00;23.00;16.00
72031;PMS5003;49185;42.320;23.198;2022-09-09T15:02:22;24.00;23.00;15.00
72031;PMS5003;49185;42.320;23.198;2022-09-09T15:04:48;23.67;23.67;16.00
72031;PMS5003;49185;42.320;23.198;2022-09-09T15:07:13;23.00;22.00;16.00
72031;PMS5003;49185;42.320;23.198;2022-09-09T15:09:38;23.00;22.00;15.00
72031;PMS5003;49185;42.320;23.198;2022-09-09T15:12:04;24.00;23.67;14.67
72031;PMS5003;49185;42.320;23.198;2022-09-09T15:14:29;27.00;24.67;16.00
72031;PMS5003;49185;42.320;23.198;2022-09-09T15:16:55;25.00;23.50;14.50
72031;PMS5003;49185;42.320;23.198;2022-09-09T15:19:21;24.00;23.00;15.33
72031;PMS5003;49185;42.320;23.198;2022-09-09T15:21:46;25.00;23.00;16.00
72031;PMS5003;49185;42.320;23.198;2022-09-09T15:24:12;25.00;23.67;17.00
72031;PMS5003;49185;42.320;23.198;2022-09-09T15:26:37;25.67;24.00;15.67
72031;PMS5003;49185;42.320;23.198;2022-09-09T15:29:03;27.33;24.00;15.33
72031;PMS5003;49185;42.320;23.198;2022-09-09T15:31:29;26.00;25.00;16.00
72031;PMS5003;49185;42.320;23.198;2022-09-09T15:34:00;24.00;24.00;16.50
72031;PMS5003;49185;42.320;23.198;2022-09-09T15:36:30;26.50;25.50;16.25
72031;PMS5003;49185;42.320;23.198;2022-09-09T15:39:02;27.75;26.00;17.00
72031;PMS5003;49185;42.320;23.198;2022-09-09T15:41:29;27.00;27.00;18.00
72031;PMS5003;49185;42.320;23.198;2022-09-09T15:43:56;28.00;27.50;16.75
72031;PMS5003;49185;42.320;23.198;2022-09-09T15:46:29;32.75;30.00;19.00
72031;PMS5003;49185;42.320;23.198;2022-09-09T15:51:45;35.00;31.50;19.00
72031;PMS5003;49185;42.320;23.198;2022-09-09T15:54:13;36.50;31.00;20.00
72031;PMS5003;49185;42.320;23.198;2022-09-09T15:56:40;32.25;29.75;18.00
72031;PMS5003;49185;42.320;23.198;2022-09-09T15:59:09;35.25;32.50;20.00
72031;PMS5003;49185;42.320;23.198;2022-09-09T16:01:35;34.67;32.00;21.00
72031;PMS5003;49185;42.320;23.198;2022-09-09T16:04:00;31.33;30.00;20.00
72031;PMS5003;49185;42.320;23.198;2022-09-09T16:06:26;40.33;35.00;21.33
72031;PMS5003;49185;42.320;23.198;2022-09-09T16:08:54;37.75;33.00;21.00
72031;PMS5003;49185;42.320;23.198;2022-09-09T16:11:22;33.50;30.00;21.00